createdAt,value
2023-04-02T00:00:09.790Z,9.85
2023-04-02T00:03:15.630Z,11.02
2023-04-02T00:06:33.363Z,11.07
2023-04-02T00:09:38.689Z,10.23
2023-04-02T00:12:40.890Z,10.02
2023-04-02T00:15:46.892Z,9.98
2023-04-02T00:18:53.451Z,10.38
2023-04-02T00:21:57.625Z,11.90
2023-04-02T00:25:07.919Z,10.43
2023-04-02T00:28:21.224Z,9.65
2023-04-02T00:31:24.496Z,11.05
2023-04-02T00:34:32.049Z,11.45
2023-04-02T00:37:42.428Z,10.48
2023-04-02T00:40:44.644Z,10.15
2023-04-02T00:43:50.992Z,10.70
2023-04-02T00:46:53.325Z,12.80
2023-04-02T00:50:11.977Z,11.70
2023-04-02T00:53:24.658Z,11.18
2023-04-02T00:56:46.512Z,11.93
2023-04-02T01:00:07.954Z,12.32
2023-04-02T01:03:13.357Z,11.55
2023-04-02T01:06:19.045Z,10.73
2023-04-02T01:09:30.352Z,11.27
2023-04-02T01:12:49.563Z,12.25
2023-04-02T01:16:31.286Z,11.07
2023-04-02T01:20:07.785Z,12.38
2023-04-02T01:23:18.359Z,10.57
2023-04-02T01:26:57.922Z,11.20
2023-04-02T01:30:03.359Z,11.52
2023-04-02T01:33:07.270Z,12.25
2023-04-02T01:36:24.267Z,11.90
2023-04-02T01:39:47.710Z,12.27
2023-04-02T01:43:14.242Z,12.00
2023-04-02T01:46:32.291Z,11.35
2023-04-02T01:49:34.629Z,11.98
2023-04-02T01:52:42.521Z,11.73
2023-04-02T01:55:49.159Z,11.48
2023-04-02T01:58:51.529Z,12.05
2023-04-02T02:02:06.547Z,12.30
2023-04-02T02:05:18.867Z,12.77
2023-04-02T02:08:38.664Z,13.48
2023-04-02T02:11:42.794Z,12.82
2023-04-02T02:14:52.486Z,12.55
2023-04-02T02:18:02.757Z,12.82
2023-04-02T02:21:08.482Z,12.73
2023-04-02T02:24:26.723Z,12.52
2023-04-02T02:27:29.014Z,12.15
2023-04-02T02:30:51.594Z,12.05
2023-04-02T02:33:59.125Z,11.95
2023-04-02T02:37:24.298Z,13.90
2023-04-02T02:40:41.005Z,11.52
2023-04-02T02:44:00.421Z,12.35
2023-04-02T02:47:16.761Z,12.02
2023-04-02T02:50:26.013Z,12.20
2023-04-02T02:53:30.272Z,12.02
2023-04-02T02:56:37.534Z,12.70
2023-04-02T02:59:41.028Z,12.15
2023-04-02T03:02:44.975Z,12.50
2023-04-02T03:06:05.546Z,12.05
2023-04-02T03:09:30.598Z,12.48
2023-04-02T03:12:51.571Z,12.38
2023-04-02T03:16:16.845Z,12.05
2023-04-02T03:19:55.237Z,10.85
2023-04-02T03:23:21.849Z,10.60
2023-04-02T03:26:35.982Z,11.90
2023-04-02T03:30:04.832Z,11.55
2023-04-02T03:36:38.623Z,10.45
2023-04-02T03:39:56.435Z,11.32
2023-04-02T03:43:22.144Z,11.38
2023-04-02T03:46:29.582Z,10.40
2023-04-02T03:49:49.992Z,11.38
2023-04-02T03:52:52.429Z,12.90
2023-04-02T03:55:55.990Z,11.15
2023-04-02T03:59:35.017Z,11.27
2023-04-02T04:03:02.769Z,11.50
2023-04-02T04:06:24.142Z,11.70
2023-04-02T04:09:31.865Z,12.05
2023-04-02T04:12:42.534Z,11.32
2023-04-02T04:15:58.660Z,11.07
2023-04-02T04:19:27.732Z,10.52
2023-04-02T04:22:30.719Z,10.85
2023-04-02T04:25:41.358Z,11.38
2023-04-02T04:29:06.057Z,12.37
2023-04-02T04:32:34.328Z,10.80
2023-04-02T04:35:51.817Z,10.90
2023-04-02T04:38:59.696Z,10.48
2023-04-02T04:42:07.273Z,11.37
2023-04-02T04:45:34.524Z,11.38
2023-04-02T04:48:56.487Z,11.40
2023-04-02T04:52:19.808Z,11.63
2023-04-02T04:55:25.490Z,10.30
2023-04-02T04:58:45.958Z,10.57
2023-04-02T05:01:58.911Z,11.23
2023-04-02T05:05:04.067Z,9.95
2023-04-02T05:08:16.749Z,11.23
2023-04-02T05:11:35.012Z,12.32
2023-04-02T05:14:58.426Z,9.82
2023-04-02T05:18:31.473Z,12.60
2023-04-02T05:21:46.112Z,10.07
2023-04-02T05:24:52.497Z,9.65
2023-04-02T05:28:10.665Z,10.25
2023-04-02T05:31:42.735Z,10.90
2023-04-02T05:34:50.101Z,9.52
2023-04-02T05:37:52.777Z,10.20
2023-04-02T05:41:27.193Z,11.30
2023-04-02T05:44:35.023Z,9.88
2023-04-02T05:47:43.412Z,10.82
2023-04-02T05:50:54.425Z,10.55
2023-04-02T05:54:12.284Z,9.65
2023-04-02T05:57:23.148Z,9.95
2023-04-02T06:01:02.819Z,10.90
2023-04-02T06:04:31.292Z,10.02
2023-04-02T06:07:58.742Z,9.40
2023-04-02T06:11:12.327Z,10.25
2023-04-02T06:14:18.048Z,10.85
2023-04-02T06:17:22.558Z,11.30
2023-04-02T06:20:25.190Z,10.63
2023-04-02T06:23:46.885Z,10.75
2023-04-02T06:26:57.855Z,11.68
2023-04-02T06:30:05.784Z,12.00
2023-04-02T06:33:11.368Z,11.05
2023-04-02T06:36:15.267Z,10.93
2023-04-02T06:39:23.053Z,11.23
2023-04-02T06:42:33.339Z,10.85
2023-04-02T06:45:45.929Z,11.63
2023-04-02T06:49:02.086Z,12.55
2023-04-02T06:52:11.358Z,13.80
2023-04-02T06:55:41.697Z,13.10
2023-04-02T06:58:44.783Z,13.43
2023-04-02T07:02:03.952Z,12.93
2023-04-02T07:05:11.865Z,14.20
2023-04-02T07:08:19.923Z,14.30
2023-04-02T07:11:23.059Z,13.48
2023-04-02T07:14:28.368Z,16.98
2023-04-02T07:17:30.947Z,15.35
2023-04-02T07:20:37.739Z,12.90
2023-04-02T07:23:43.859Z,16.95
2023-04-02T07:26:48.404Z,16.80
2023-04-02T07:29:50.640Z,16.40
2023-04-02T07:32:52.894Z,14.88
2023-04-02T07:35:56.360Z,14.85
2023-04-02T07:38:58.735Z,14.68
2023-04-02T07:42:02.349Z,15.38
2023-04-02T07:45:06.132Z,14.65
2023-04-02T07:48:11.179Z,14.60
2023-04-02T07:51:31.735Z,15.60
2023-04-02T07:54:34.052Z,14.32
2023-04-02T07:57:39.685Z,15.88
2023-04-02T08:00:41.906Z,14.68
2023-04-02T08:03:44.444Z,14.10
2023-04-02T08:06:47.683Z,14.82
2023-04-02T08:09:49.884Z,13.80
2023-04-02T08:12:52.164Z,14.13
2023-04-02T08:15:54.432Z,15.30
2023-04-02T08:18:56.749Z,14.27
2023-04-02T08:21:59.329Z,14.10
2023-04-02T08:25:01.512Z,13.73
2023-04-02T08:28:03.748Z,12.98
2023-04-02T08:31:09.247Z,14.13
2023-04-02T08:34:12.249Z,15.30
2023-04-02T08:37:15.297Z,13.55
2023-04-02T08:40:29.471Z,14.35
2023-04-02T08:44:03.985Z,14.77
2023-04-02T08:47:08.832Z,14.77
2023-04-02T08:50:36.580Z,13.98
2023-04-02T08:53:42.113Z,13.07
2023-04-02T08:56:52.182Z,15.00
2023-04-02T09:03:28.011Z,11.73
2023-04-02T09:06:30.439Z,11.82
2023-04-02T09:09:38.135Z,12.52
2023-04-02T09:12:43.368Z,10.30
2023-04-02T09:15:45.609Z,8.73
2023-04-02T09:18:49.102Z,9.30
2023-04-02T09:22:16.723Z,8.70
2023-04-02T09:25:27.162Z,8.75
2023-04-02T09:28:29.429Z,8.55
2023-04-02T09:31:44.546Z,8.43
2023-04-02T09:34:47.187Z,8.18
2023-04-02T09:38:17.814Z,8.73
2023-04-02T09:41:21.196Z,8.18
2023-04-02T09:44:31.307Z,8.52
2023-04-02T09:47:33.530Z,8.90
2023-04-02T09:50:36.209Z,7.82
2023-04-02T09:53:46.386Z,8.48
2023-04-02T09:57:18.902Z,9.00
2023-04-02T10:00:39.596Z,8.73
2023-04-02T10:03:43.385Z,8.35
2023-04-02T10:06:53.598Z,8.10
2023-04-02T10:13:23.212Z,8.02
2023-04-02T10:16:39.291Z,7.55
2023-04-02T10:19:46.059Z,6.57
2023-04-02T10:22:48.348Z,5.28
2023-04-02T10:26:03.845Z,6.82
2023-04-02T10:29:31.542Z,6.93
2023-04-02T10:32:46.603Z,6.70
2023-04-02T10:36:12.045Z,6.78
2023-04-02T10:39:17.836Z,6.75
2023-04-02T10:42:34.593Z,6.82
2023-04-02T10:46:00.948Z,7.15
2023-04-02T10:49:22.307Z,6.05
2023-04-02T10:52:34.070Z,5.63
2023-04-02T10:55:43.390Z,6.22
2023-04-02T10:59:00.631Z,4.83
2023-04-02T11:02:24.809Z,6.13
2023-04-02T11:05:37.593Z,5.75
2023-04-02T11:08:45.918Z,5.30
2023-04-02T11:11:53.031Z,4.72
2023-04-02T11:14:56.337Z,5.10
2023-04-02T11:17:58.810Z,5.25
2023-04-02T11:21:06.933Z,4.53
2023-04-02T11:24:24.501Z,4.80
2023-04-02T11:27:29.806Z,4.63
2023-04-02T11:30:32.162Z,5.30
2023-04-02T11:33:46.134Z,4.82
2023-04-02T11:36:55.150Z,4.47
2023-04-02T11:40:01.844Z,4.72
2023-04-02T11:43:37.374Z,4.15
2023-04-02T11:46:41.769Z,4.65
2023-04-02T11:49:56.366Z,4.20
2023-04-02T11:53:24.718Z,4.80
2023-04-02T11:56:33.137Z,4.50
2023-04-02T12:00:17.962Z,5.03
2023-04-02T12:03:57.750Z,4.90
2023-04-02T12:07:27.023Z,4.30
2023-04-02T12:10:34.575Z,4.63
2023-04-02T12:13:42.791Z,4.93
2023-04-02T12:16:45.211Z,5.72
2023-04-02T12:20:04.367Z,5.72
2023-04-02T12:23:20.791Z,5.47
2023-04-02T12:26:32.247Z,5.03
2023-04-02T12:29:34.639Z,4.28
2023-04-02T12:32:37.072Z,3.95
2023-04-02T12:35:41.450Z,4.03
2023-04-02T12:38:56.187Z,3.38
2023-04-02T12:41:58.844Z,2.65
2023-04-02T12:45:01.998Z,2.65
2023-04-02T12:48:07.178Z,2.40
2023-04-02T12:51:10.803Z,2.20
2023-04-02T12:54:21.197Z,2.10
2023-04-02T12:57:42.072Z,1.83
2023-04-02T13:00:44.374Z,1.30
2023-04-02T13:04:13.778Z,1.30
2023-04-02T13:07:21.825Z,1.05
2023-04-02T13:10:26.751Z,1.08
2023-04-02T13:13:34.238Z,0.90
2023-04-02T13:16:40.076Z,0.77
2023-04-02T13:19:42.310Z,0.85
2023-04-02T13:22:44.528Z,0.70
2023-04-02T13:25:46.770Z,0.77
2023-04-02T13:29:10.174Z,0.50
2023-04-02T13:32:13.536Z,0.73
2023-04-02T13:35:16.054Z,0.60
2023-04-02T13:38:18.356Z,1.15
2023-04-02T13:41:27.543Z,0.80
2023-04-02T13:44:32.305Z,1.00
2023-04-02T13:47:34.493Z,0.90
2023-04-02T13:50:36.930Z,0.82
2023-04-02T13:53:39.493Z,1.00
2023-04-02T13:56:41.990Z,0.88
2023-04-02T13:59:44.345Z,0.90
2023-04-02T14:03:16.703Z,0.60
2023-04-02T14:06:46.756Z,0.75
2023-04-02T14:10:10.401Z,2.00
2023-04-02T14:13:43.685Z,1.30
2023-04-02T14:17:09.733Z,0.82
2023-04-02T14:20:32.159Z,0.75
2023-04-02T14:23:59.709Z,0.80
2023-04-02T14:27:17.645Z,0.80
2023-04-02T14:30:43.210Z,0.50
2023-04-02T14:33:53.208Z,0.60
2023-04-02T14:37:19.686Z,0.50
2023-04-02T14:40:46.614Z,0.70
2023-04-02T14:44:00.478Z,0.52
2023-04-02T14:47:35.550Z,0.40
2023-04-02T14:50:40.631Z,0.50
2023-04-02T14:54:07.576Z,0.50
2023-04-02T14:57:18.901Z,0.60
2023-04-02T15:00:40.616Z,0.52
2023-04-02T15:03:57.649Z,0.50
2023-04-02T15:07:07.816Z,0.63
2023-04-02T15:13:37.584Z,0.50
2023-04-02T15:16:39.891Z,0.65
2023-04-02T15:19:42.151Z,0.60
2023-04-02T15:23:31.114Z,0.60
2023-04-02T15:26:46.508Z,0.70
2023-04-02T15:29:51.765Z,0.70
2023-04-02T15:32:57.996Z,0.68
2023-04-02T15:36:28.602Z,0.70
2023-04-02T15:39:53.210Z,1.33
2023-04-02T15:43:06.912Z,1.63
2023-04-02T15:46:38.508Z,1.17
2023-04-02T15:49:41.388Z,1.00
2023-04-02T15:53:18.481Z,0.82
2023-04-02T15:56:41.910Z,1.40
2023-04-02T15:59:57.949Z,1.15
2023-04-02T16:03:12.199Z,1.10
2023-04-02T16:06:28.197Z,0.90
2023-04-02T16:09:53.065Z,0.90
2023-04-02T16:12:56.685Z,0.82
2023-04-02T16:16:22.143Z,1.08
2023-04-02T16:19:35.916Z,1.10
2023-04-02T16:22:49.795Z,0.77
2023-04-02T16:26:22.990Z,0.90
2023-04-02T16:29:59.975Z,0.90
2023-04-02T16:33:06.619Z,0.80
2023-04-02T16:36:38.231Z,1.00
2023-04-02T16:39:49.197Z,1.05
2023-04-02T16:43:22.609Z,1.00
2023-04-02T16:46:54.384Z,1.35
2023-04-02T16:50:14.204Z,0.90
2023-04-02T16:53:36.672Z,0.90
2023-04-02T16:57:03.723Z,0.95
2023-04-02T17:00:17.271Z,0.70
2023-04-02T17:03:36.175Z,0.90
2023-04-02T17:06:56.682Z,1.10
2023-04-02T17:10:30.399Z,1.08
2023-04-02T17:13:49.407Z,0.88
2023-04-02T17:16:57.047Z,1.20
2023-04-02T17:20:01.591Z,1.10
2023-04-02T17:23:05.872Z,0.90
2023-04-02T17:26:10.013Z,0.85
2023-04-02T17:29:19.020Z,0.90
2023-04-02T17:32:30.664Z,0.98
2023-04-02T17:35:54.787Z,1.20
2023-04-02T17:39:36.147Z,1.40
2023-04-02T17:42:51.076Z,1.20
2023-04-02T17:46:01.832Z,1.25
2023-04-02T17:49:13.075Z,1.38
2023-04-02T17:53:13.321Z,1.23
2023-04-02T18:00:10.567Z,1.27
2023-04-02T18:03:30.341Z,1.33
2023-04-02T18:06:38.238Z,1.25
2023-04-02T18:10:12.594Z,1.65
2023-04-02T18:13:35.885Z,1.67
2023-04-02T18:17:08.728Z,1.75
2023-04-02T18:20:23.092Z,1.80
2023-04-02T18:23:50.079Z,1.80
2023-04-02T18:27:16.425Z,1.65
2023-04-02T18:30:43.038Z,1.90
2023-04-02T18:34:01.932Z,2.10
2023-04-02T18:37:10.243Z,1.85
2023-04-02T18:40:33.544Z,1.85
2023-04-02T18:44:01.901Z,2.30
2023-04-02T18:47:25.339Z,2.78
2023-04-02T18:50:36.984Z,2.63
2023-04-02T18:53:41.002Z,2.55
2023-04-02T18:56:44.634Z,2.70
2023-04-02T19:00:04.734Z,3.47
2023-04-02T19:03:24.241Z,2.93
2023-04-02T19:06:49.648Z,3.78
2023-04-02T19:09:52.619Z,3.40
2023-04-02T19:12:54.941Z,3.38
2023-04-02T19:16:08.887Z,3.10
2023-04-02T19:19:23.464Z,3.45
2023-04-02T19:22:52.155Z,3.97
2023-04-02T19:26:01.953Z,3.33
2023-04-02T19:29:19.740Z,3.95
2023-04-02T19:32:41.526Z,3.40
2023-04-02T19:36:10.791Z,3.80
2023-04-02T19:39:48.502Z,3.83
2023-04-02T19:42:52.745Z,3.03
2023-04-02T19:45:55.640Z,3.65
2023-04-02T19:49:22.949Z,3.15
2023-04-02T19:52:25.214Z,3.85
2023-04-02T19:55:27.560Z,3.78
2023-04-02T19:58:32.684Z,3.20
2023-04-02T20:01:35.179Z,3.22
2023-04-02T20:04:37.788Z,3.55
2023-04-02T20:07:40.154Z,3.47
2023-04-02T20:10:43.094Z,3.95
2023-04-02T20:13:45.591Z,3.75
2023-04-02T20:16:48.124Z,3.90
2023-04-02T20:19:50.682Z,3.88
2023-04-02T20:22:52.888Z,3.55
2023-04-02T20:25:56.992Z,3.58
2023-04-02T20:28:59.276Z,3.78
2023-04-02T20:32:01.555Z,4.70
2023-04-02T20:35:05.140Z,4.22
2023-04-02T20:38:08.484Z,4.28
2023-04-02T20:41:10.727Z,4.03
2023-04-02T20:44:13.264Z,3.92
2023-04-02T20:47:15.557Z,4.05
2023-04-02T20:50:17.867Z,3.83
2023-04-02T20:53:20.392Z,3.88
2023-04-02T20:56:26.867Z,3.80
2023-04-02T20:59:29.090Z,4.03
2023-04-02T21:02:31.450Z,3.22
2023-04-02T21:05:33.686Z,3.42
2023-04-02T21:08:37.226Z,3.70
2023-04-02T21:11:39.433Z,3.25
2023-04-02T21:14:41.603Z,3.65
2023-04-02T21:17:43.891Z,3.42
2023-04-02T21:20:55.447Z,3.72
2023-04-02T21:24:00.559Z,3.47
2023-04-02T21:27:02.815Z,3.38
2023-04-02T21:30:05.547Z,3.92
2023-04-02T21:33:07.788Z,3.78
2023-04-02T21:36:15.456Z,3.50
2023-04-02T21:39:22.627Z,3.33
2023-04-02T21:42:25.001Z,3.60
2023-04-02T21:45:27.238Z,3.53
2023-04-02T21:48:30.495Z,3.30
2023-04-02T21:51:34.856Z,3.25
2023-04-02T21:54:37.077Z,3.65
2023-04-02T21:57:39.423Z,3.50
2023-04-02T22:00:41.605Z,3.70
2023-04-02T22:03:44.247Z,3.13
2023-04-02T22:06:47.437Z,3.80
2023-04-02T22:09:49.662Z,3.78
2023-04-02T22:12:51.861Z,3.70
2023-04-02T22:16:00.465Z,3.67
2023-04-02T22:19:05.851Z,3.58
2023-04-02T22:22:08.024Z,3.60
2023-04-02T22:25:10.313Z,3.40
2023-04-02T22:28:12.462Z,3.63
2023-04-02T22:31:23.497Z,3.42
2023-04-02T22:34:26.008Z,3.78
2023-04-02T22:37:29.157Z,3.67
2023-04-02T22:40:31.336Z,4.30
2023-04-02T22:43:34.493Z,3.83
2023-04-02T22:46:36.821Z,3.47
2023-04-02T22:49:39.229Z,3.78
2023-04-02T22:52:41.958Z,4.38
2023-04-02T22:55:44.261Z,3.80
2023-04-02T22:58:46.647Z,4.15
2023-04-02T23:01:49.175Z,4.10
2023-04-02T23:04:51.452Z,3.78
2023-04-02T23:07:53.821Z,3.80
2023-04-02T23:11:07.582Z,4.07
2023-04-02T23:14:09.862Z,4.60
2023-04-02T23:17:12.073Z,4.28
2023-04-02T23:20:14.310Z,4.65
2023-04-02T23:23:16.585Z,3.85
2023-04-02T23:26:29.798Z,4.03
2023-04-02T23:29:32.128Z,4.28
2023-04-02T23:32:34.372Z,3.58
2023-04-02T23:35:36.911Z,4.40
2023-04-02T23:38:39.204Z,4.22
2023-04-02T23:41:42.813Z,3.97
2023-04-02T23:44:45.038Z,3.92
2023-04-02T23:47:47.282Z,4.53
2023-04-02T23:50:49.628Z,4.55
2023-04-02T23:53:53.719Z,4.00
2023-04-02T23:56:56.004Z,4.10
2023-04-02T23:59:58.177Z,4.00
